Time;durP1;ratioP1;P1;durP2;ratioP2;P2;SDS_P1;SDS_P2;PMS_P1;PMS_P2;Temp;Humidity;BMP_temperature;BMP_pressure;BME280_temperature;BME280_humidity;BME280_pressure;Samples;Min_cycle;Max_cycle;Signal;HPM_P1;HPM_P2
2022/02/03 00:02:31;;;;;;;;;;;;;;;-19.10;89.25;100937.63;5052672;28;19928;-68
2022/02/03 00:05:04;;;;;;;;;;;;;;;-19.09;89.03;100936.84;5052618;28;19925;-67
2022/02/03 00:07:38;;;;;;;;;;;;;;;-19.15;88.57;100947.22;5052563;28;19960;-67
2022/02/03 00:26:32;;;;;;;;;;;;;;;-19.19;89.11;100971.72;5041836;28;19932;-68
2022/02/03 00:29:00;;;;;;;;;;;;;;;-19.20;88.53;100974.97;5052487;28;19931;-67
2022/02/03 00:31:40;;;;;;;;;;;;;;;-19.30;88.07;100978.44;5052961;28;19936;-63
2022/02/03 00:34:15;;;;;;;;;;;;;;;-19.14;88.06;100986.13;5056462;28;19974;-63
2022/02/03 00:37:06;;;;;;;;;;;;;;;-19.00;87.91;100981.25;5056367;28;19925;-64
2022/02/03 00:50:33;;;;;;;;;;;;;;;-19.36;86.09;100975.53;5056420;28;19931;-67
2022/02/03 00:53:02;;;;;;;;;;;;;;;-19.41;86.56;100985.13;5055966;28;19924;-64
2022/02/03 00:55:30;;;;;;;;;;;;;;;-19.38;87.29;100986.97;5056191;28;19925;-65
2022/02/03 00:57:59;;;;;;;;;;;;;;;-19.20;86.23;100988.22;5056110;28;19932;-61
2022/02/03 01:00:27;;;;;;;;;;;;;;;-19.28;87.22;100990.94;5056342;28;20063;-67
2022/02/03 01:03:01;;;;;;;;;;;;;;;-19.59;85.78;100989.69;5055943;28;19931;-62
2022/02/03 01:05:29;;;;;;;;;;;;;;;-19.71;85.66;100983.91;5055743;28;20023;-67
2022/02/03 01:07:57;;;;;;;;;;;;;;;-19.94;84.88;100979.84;5055845;28;20280;-66
2022/02/03 01:10:30;;;;;;;;;;;;;;;-20.08;85.13;100978.88;5055857;28;20283;-64
2022/02/03 01:13:04;;;;;;;;;;;;;;;-20.05;84.47;100986.50;5056043;28;19931;-67
2022/02/03 01:15:38;;;;;;;;;;;;;;;-19.87;85.54;100983.63;5055806;28;20010;-68
2022/02/03 01:18:39;;;;;;;;;;;;;;;-19.60;84.26;100978.03;5055681;28;20368;-67
2022/02/03 01:35:08;;;;;;;;;;;;;;;-19.80;86.62;100973.38;5035411;28;20286;-65
2022/02/03 01:37:49;;;;;;;;;;;;;;;-19.92;85.26;100983.28;5035450;28;19932;-66
2022/02/03 01:43:21;;;;;;;;;;;;;;;-20.07;85.74;100985.53;5034376;28;20394;-66
2022/02/03 01:45:52;;;;;;;;;;;;;;;-19.65;86.02;100985.91;5035215;28;20394;-66
2022/02/03 01:48:33;;;;;;;;;;;;;;;-19.95;84.63;100988.03;5035152;28;19925;-64
2022/02/03 01:53:46;;;;;;;;;;;;;;;-20.42;84.16;100985.47;5035259;28;19932;-65
2022/02/03 01:56:13;;;;;;;;;;;;;;;-20.83;81.98;100988.31;5034736;28;19932;-68
2022/02/03 01:58:47;;;;;;;;;;;;;;;-20.51;83.57;100984.84;5035058;28;19932;-66
2022/02/03 02:01:14;;;;;;;;;;;;;;;-20.49;82.20;100993.25;5034751;28;20283;-65
2022/02/03 02:03:42;;;;;;;;;;;;;;;-20.44;81.26;100989.50;5034725;28;19925;-66
2022/02/03 02:06:18;;;;;;;;;;;;;;;-20.27;81.03;100991.53;5035162;28;19960;-66
2022/02/03 02:08:51;;;;;;;;;;;;;;;-20.41;80.73;100993.78;5034808;28;19932;-68
2022/02/03 02:11:39;;;;;;;;;;;;;;;-20.59;81.22;100995.84;5034763;28;20454;-65
2022/02/03 02:14:29;;;;;;;;;;;;;;;-20.40;79.71;100996.38;5034385;28;19925;-66
2022/02/03 02:17:21;;;;;;;;;;;;;;;-20.62;81.20;100995.59;5034821;28;20040;-67
2022/02/03 02:20:01;;;;;;;;;;;;;;;-21.24;81.85;100998.47;5034366;28;19975;-65
2022/02/03 02:42:27;;;;;;;;;;;;;;;-21.16;81.67;100999.06;5093946;28;20278;-66
2022/02/03 02:44:59;;;;;;;;;;;;;;;-21.29;83.48;101006.25;5094076;28;20478;-63
2022/02/03 02:47:28;;;;;;;;;;;;;;;-21.41;81.69;100999.69;5094102;28;19928;-66
2022/02/03 02:49:59;;;;;;;;;;;;;;;-21.12;82.98;100999.38;5094054;28;20373;-68
2022/02/03 02:52:35;;;;;;;;;;;;;;;-21.22;80.92;101003.50;5093889;28;19939;-66
2022/02/03 02:55:15;;;;;;;;;;;;;;;-21.20;82.67;101006.97;5093162;28;19930;-67
2022/02/03 03:01:28;;;;;;;;;;;;;;;-21.17;81.44;101009.66;5089914;28;19924;-67
2022/02/03 03:04:00;;;;;;;;;;;;;;;-21.20;82.08;101010.31;5093821;28;19970;-68
2022/02/03 03:31:23;;;;;;;;;;;;;;;-21.56;83.74;101024.06;5093289;28;20286;-62
2022/02/03 03:33:57;;;;;;;;;;;;;;;-21.45;84.03;101024.03;5093280;28;19924;-68
2022/02/03 03:36:25;;;;;;;;;;;;;;;-21.51;83.73;101013.69;5093391;28;19931;-61
2022/02/03 03:38:54;;;;;;;;;;;;;;;-21.49;83.40;101004.81;5093368;28;20023;-66
2022/02/03 03:41:21;;;;;;;;;;;;;;;-21.33;83.04;101008.50;5092860;28;19928;-62
2022/02/03 03:43:59;;;;;;;;;;;;;;;-21.48;81.72;101016.41;5092955;28;19998;-66
2022/02/03 03:46:28;;;;;;;;;;;;;;;-21.37;81.42;101006.56;5093166;28;19927;-67
2022/02/03 03:49:02;;;;;;;;;;;;;;;-21.79;80.92;101019.81;5093109;28;19931;-66
2022/02/03 03:51:32;;;;;;;;;;;;;;;-21.44;81.06;101019.22;5092933;28;19928;-61
2022/02/03 03:54:04;;;;;;;;;;;;;;;-21.26;80.03;101024.69;5093326;28;19928;-68
2022/02/03 03:56:40;;;;;;;;;;;;;;;-21.32;79.41;101026.66;5092995;28;20298;-62
2022/02/03 03:59:51;;;;;;;;;;;;;;;-21.45;79.91;101037.25;5093080;28;20379;-65
2022/02/03 04:31:19;;;;;;;;;;;;;;;-21.47;87.64;101058.53;5092625;28;20415;-61
2022/02/03 04:34:06;;;;;;;;;;;;;;;-21.56;86.28;101055.34;5092508;28;19971;-66
2022/02/03 04:39:55;;;;;;;;;;;;;;;-21.39;86.22;101050.09;5092531;28;19963;-62
2022/02/03 04:42:52;;;;;;;;;;;;;;;-21.35;87.45;101056.94;5092335;28;19931;-68
2022/02/03 04:54:11;;;;;;;;;;;;;;;-21.02;80.16;101060.28;5092327;28;19931;-67
2022/02/03 05:02:43;;;;;;;;;;;;;;;-22.49;84.64;101063.63;5092404;28;19949;-67
2022/02/03 05:05:35;;;;;;;;;;;;;;;-22.30;83.15;101065.97;5092292;28;20020;-64
2022/02/03 05:08:26;;;;;;;;;;;;;;;-22.11;83.94;101064.22;5092284;28;19998;-67
2022/02/03 05:11:16;;;;;;;;;;;;;;;-21.99;84.25;101059.38;5091983;28;20332;-67
2022/02/03 05:14:21;;;;;;;;;;;;;;;-21.87;84.78;101052.94;5092240;28;20294;-67
2022/02/03 05:17:19;;;;;;;;;;;;;;;-21.74;85.85;101053.91;5092071;28;20390;-66
2022/02/03 05:20:17;;;;;;;;;;;;;;;-21.84;83.33;101054.78;5094567;28;20018;-62
2022/02/03 05:43:11;;;;;;;;;;;;;;;-22.50;82.69;101067.69;5095313;28;19966;-65
2022/02/03 05:46:01;;;;;;;;;;;;;;;-22.52;82.88;101071.63;5095326;28;20382;-68
2022/02/03 05:51:30;;;;;;;;;;;;;;;-22.40;83.28;101068.44;5093230;28;19924;-61
2022/02/03 06:02:45;;;;;;;;;;;;;;;-22.10;84.49;101083.19;5094931;28;20035;-67
2022/02/03 06:05:17;;;;;;;;;;;;;;;-22.05;84.08;101081.97;5094960;28;19947;-68
2022/02/03 06:07:56;;;;;;;;;;;;;;;-21.94;83.54;101086.91;5094976;28;19924;-67
2022/02/03 06:13:12;;;;;;;;;;;;;;;-21.79;78.51;101083.16;5094694;28;19989;-66
2022/02/03 06:15:44;;;;;;;;;;;;;;;-22.14;79.49;101082.81;5094693;28;20408;-65
2022/02/03 06:23:47;;;;;;;;;;;;;;;-22.20;80.92;101084.09;5092669;28;19928;-65
2022/02/03 06:28:59;;;;;;;;;;;;;;;-22.51;78.85;101089.75;5088314;28;19931;-67
2022/02/03 06:31:26;;;;;;;;;;;;;;;-22.48;78.70;101085.06;5091971;28;20396;-63
2022/02/03 06:33:54;;;;;;;;;;;;;;;-22.58;78.51;101083.44;5093060;28;19928;-65
2022/02/03 06:36:21;;;;;;;;;;;;;;;-22.82;79.61;101081.44;5093481;28;20346;-68
2022/02/03 06:38:47;;;;;;;;;;;;;;;-22.98;79.33;101084.28;5093173;28;19970;-68
2022/02/03 06:41:14;;;;;;;;;;;;;;;-23.41;80.54;101086.44;5093199;28;19950;-69
2022/02/03 06:43:42;;;;;;;;;;;;;;;-23.42;82.82;101086.28;5092582;28;19924;-69
2022/02/03 06:46:10;;;;;;;;;;;;;;;-23.47;81.84;101087.50;5093851;28;20004;-68
2022/02/03 06:48:38;;;;;;;;;;;;;;;-23.03;81.80;101087.97;5092634;28;19924;-69
2022/02/03 06:51:11;;;;;;;;;;;;;;;-22.85;80.05;101087.00;5092513;28;19975;-69
2022/02/03 06:53:41;;;;;;;;;;;;;;;-23.30;79.83;101098.06;5093446;28;19996;-70
2022/02/03 06:56:11;;;;;;;;;;;;;;;-23.47;80.69;101099.81;5093775;28;19963;-69
2022/02/03 06:58:43;;;;;;;;;;;;;;;-23.20;80.33;101098.84;5091625;28;19924;-68
2022/02/03 07:01:15;;;;;;;;;;;;;;;-23.01;77.93;101103.72;5093066;28;19986;-66
2022/02/03 07:03:52;;;;;;;;;;;;;;;-23.02;78.70;101107.78;5092249;28;20006;-66
2022/02/03 07:06:19;;;;;;;;;;;;;;;-23.11;77.26;101110.34;5092991;28;19935;-67
2022/02/03 07:08:47;;;;;;;;;;;;;;;-23.22;78.35;101107.69;5092753;28;19924;-68
2022/02/03 07:11:17;;;;;;;;;;;;;;;-23.26;78.56;101109.06;5092485;28;20271;-67
2022/02/03 07:13:44;;;;;;;;;;;;;;;-23.33;77.36;101109.25;5093773;28;20337;-62
2022/02/03 07:16:11;;;;;;;;;;;;;;;-23.40;77.60;101111.94;5091751;28;20119;-66
2022/02/03 07:18:37;;;;;;;;;;;;;;;-23.81;80.35;101110.16;5091428;28;19924;-66
2022/02/03 07:21:04;;;;;;;;;;;;;;;-23.90;82.04;101106.88;5092673;28;19924;-63
2022/02/03 07:23:34;;;;;;;;;;;;;;;-23.73;81.72;101118.19;5101249;22;20291;-69
2022/02/03 07:26:00;;;;;;;;;;;;;;;-23.32;79.85;101121.72;5071566;28;19999;-68
2022/02/03 07:28:27;;;;;;;;;;;;;;;-23.10;80.01;101128.47;5072517;28;19936;-72
2022/02/03 07:30:55;;;;;;;;;;;;;;;-23.02;79.67;101124.19;5072110;28;19931;-65
2022/02/03 07:33:21;;;;;;;;;;;;;;;-22.96;80.32;101132.94;5066641;28;19959;-68
2022/02/03 07:35:48;;;;;;;;;;;;;;;-23.02;81.04;101131.56;5071035;28;19925;-70
2022/02/03 07:38:15;;;;;;;;;;;;;;;-22.86;81.33;101130.50;5072377;28;19925;-68
2022/02/03 07:40:43;;;;;;;;;;;;;;;-22.68;80.47;101132.75;5072520;28;19931;-69
2022/02/03 07:43:10;;;;;;;;;;;;;;;-22.87;80.95;101135.28;5070817;28;19924;-71
2022/02/03 07:45:37;;;;;;;;;;;;;;;-22.83;81.73;101139.75;5071161;28;19925;-68
2022/02/03 07:48:04;;;;;;;;;;;;;;;-22.54;80.53;101131.44;5072192;28;19985;-68
2022/02/03 07:50:31;;;;;;;;;;;;;;;-22.62;81.23;101129.94;5071365;28;20294;-67
2022/02/03 07:52:58;;;;;;;;;;;;;;;-22.37;80.41;101133.69;5070611;28;19951;-68
2022/02/03 07:55:25;;;;;;;;;;;;;;;-22.21;79.65;101138.28;5071870;28;19924;-67
2022/02/03 07:57:53;;;;;;;;;;;;;;;-22.13;79.11;101143.81;5071776;28;19924;-68
2022/02/03 08:00:21;;;;;;;;;;;;;;;-22.16;77.98;101139.47;5072073;28;20294;-70
2022/02/03 08:02:47;;;;;;;;;;;;;;;-22.23;77.37;101143.06;5070991;28;19924;-68
2022/02/03 08:05:16;;;;;;;;;;;;;;;-22.30;78.28;101143.31;5071370;28;20409;-69
2022/02/03 08:07:51;;;;;;;;;;;;;;;-22.47;79.32;101144.41;5071485;28;20298;-68
2022/02/03 08:10:31;;;;;;;;;;;;;;;-22.44;77.90;101148.72;5070947;28;19924;-68
2022/02/03 08:13:02;;;;;;;;;;;;;;;-22.36;77.44;101151.81;5070772;28;20015;-68
2022/02/03 08:15:30;;;;;;;;;;;;;;;-22.53;76.29;101157.81;5071813;28;19929;-70
2022/02/03 08:18:02;;;;;;;;;;;;;;;-22.64;76.93;101160.25;5071977;28;20025;-68
2022/02/03 08:20:29;;;;;;;;;;;;;;;-22.78;78.76;101162.31;5067558;28;19932;-68
2022/02/03 08:23:12;;;;;;;;;;;;;;;-22.75;79.61;101170.84;5064553;22;19924;-64
2022/02/03 08:25:43;;;;;;;;;;;;;;;-22.54;80.08;101173.38;5051399;28;20375;-67
2022/02/03 08:28:38;;;;;;;;;;;;;;;-22.25;80.24;101179.09;5049795;28;20334;-68
2022/02/03 08:31:07;;;;;;;;;;;;;;;-22.15;81.04;101177.34;5050602;28;19932;-62
2022/02/03 08:33:34;;;;;;;;;;;;;;;-22.21;80.40;101172.81;5051281;28;20031;-62
2022/02/03 08:36:03;;;;;;;;;;;;;;;-22.07;82.11;101179.69;5052082;28;19931;-68
2022/02/03 08:38:45;;;;;;;;;;;;;;;-21.96;81.11;101180.56;5050030;28;19929;-66
2022/02/03 08:41:11;;;;;;;;;;;;;;;-21.84;82.40;101178.25;5051181;28;20393;-64
2022/02/03 08:43:39;;;;;;;;;;;;;;;-21.73;82.24;101182.44;5051311;28;19925;-64
2022/02/03 08:46:08;;;;;;;;;;;;;;;-21.70;81.97;101187.63;5049849;28;19939;-61
2022/02/03 08:48:35;;;;;;;;;;;;;;;-21.57;82.11;101182.94;5050820;28;19924;-66
2022/02/03 08:51:03;;;;;;;;;;;;;;;-21.43;82.32;101185.63;5051020;28;19932;-66
2022/02/03 08:53:33;;;;;;;;;;;;;;;-21.39;81.49;101183.53;5054567;28;19925;-68
2022/02/03 08:56:17;;;;;;;;;;;;;;;-21.35;82.78;101175.56;5054167;28;19931;-65
2022/02/03 09:35:08;;;;;;;;;;;;;;;-21.17;80.26;101187.66;5049436;28;20014;-68
2022/02/03 09:40:23;;;;;;;;;;;;;;;-20.98;80.40;101187.50;5092571;28;19943;-68
2022/02/03 09:54:18;;;;;;;;;;;;;;;-19.92;82.02;101188.00;5119908;27;19970;-68
2022/02/03 09:59:58;;;;;;;;;;;;;;;-19.74;81.46;101191.84;5092105;28;19924;-70
2022/02/03 10:02:28;;;;;;;;;;;;;;;-19.35;81.85;101188.84;5108274;28;19923;-68
2022/02/03 10:04:57;;;;;;;;;;;;;;;-18.83;82.89;101193.28;5109180;28;19924;-68
2022/02/03 10:07:25;;;;;;;;;;;;;;;-18.14;81.51;101190.50;5109143;28;19939;-68
2022/02/03 10:09:54;;;;;;;;;;;;;;;-17.76;79.80;101197.13;5108442;28;20297;-69
2022/02/03 10:12:29;;;;;;;;;;;;;;;-17.76;77.65;101192.16;5108740;28;20165;-68
2022/02/03 10:14:56;;;;;;;;;;;;;;;-17.79;78.45;101197.81;5108903;28;19931;-68
2022/02/03 10:17:32;;;;;;;;;;;;;;;-17.84;78.23;101200.00;5107529;28;19924;-69
2022/02/03 10:19:59;;;;;;;;;;;;;;;-17.87;77.82;101194.81;5108388;28;19924;-69
2022/02/03 10:22:27;;;;;;;;;;;;;;;-17.57;78.43;101200.91;5108938;28;19924;-70
2022/02/03 10:25:03;;;;;;;;;;;;;;;-17.48;78.91;101204.75;5072363;22;19925;-67
2022/02/03 10:27:35;;;;;;;;;;;;;;;-17.54;79.18;101209.31;5047550;28;19932;-68
2022/02/03 10:30:11;;;;;;;;;;;;;;;-17.53;78.25;101208.56;5047882;28;20483;-68
2022/02/03 10:32:38;;;;;;;;;;;;;;;-17.34;78.95;101213.94;5047624;28;20018;-68
2022/02/03 10:35:14;;;;;;;;;;;;;;;-17.12;77.62;101206.22;5047428;28;20001;-68
2022/02/03 10:37:45;;;;;;;;;;;;;;;-16.73;77.11;101209.47;5047294;28;19925;-66
2022/02/03 10:40:39;;;;;;;;;;;;;;;-16.91;76.90;101200.09;5048279;28;19925;-68
2022/02/03 10:46:23;;;;;;;;;;;;;;;-16.79;76.96;101207.47;5045183;28;20374;-68
2022/02/03 10:49:07;;;;;;;;;;;;;;;-16.80;77.20;101207.38;5047367;28;20020;-67
2022/02/03 10:52:03;;;;;;;;;;;;;;;-16.62;76.11;101205.13;5048702;28;19929;-64
2022/02/03 10:54:50;;;;;;;;;;;;;;;-16.75;76.24;101208.50;5047168;28;19932;-68
2022/02/03 11:03:16;;;;;;;;;;;;;;;-16.88;77.66;101218.50;5045788;28;19932;-65
2022/02/03 11:08:31;;;;;;;;;;;;;;;-16.65;76.92;101219.88;5021036;28;20295;-67
2022/02/03 11:11:01;;;;;;;;;;;;;;;-16.68;77.27;101223.91;5033932;28;19960;-66
2022/02/03 11:13:33;;;;;;;;;;;;;;;-16.78;78.64;101228.25;5033733;28;19929;-61
2022/02/03 11:16:01;;;;;;;;;;;;;;;-16.84;79.15;101228.75;5034219;28;20063;-62
2022/02/03 11:18:28;;;;;;;;;;;;;;;-16.81;78.65;101228.06;5035039;28;20286;-66
2022/02/03 11:20:54;;;;;;;;;;;;;;;-16.67;78.21;101224.75;5032871;28;20364;-67
2022/02/03 11:23:32;;;;;;;;;;;;;;;-16.71;79.20;101232.81;5033207;28;19932;-67
2022/02/03 11:26:08;;;;;;;;;;;;;;;-16.58;78.26;101227.84;5034127;28;20260;-68
2022/02/03 11:31:43;;;;;;;;;;;;;;;-16.42;79.55;101236.25;5031295;28;20380;-68
2022/02/03 11:34:38;;;;;;;;;;;;;;;-16.46;79.89;101238.56;5033800;28;20064;-67
2022/02/03 11:37:24;;;;;;;;;;;;;;;-16.41;79.28;101233.84;5034627;28;19933;-67
2022/02/03 11:48:55;;;;;;;;;;;;;;;-15.81;77.83;101225.81;5129070;27;20365;-67
2022/02/03 12:19:57;;;;;;;;;;;;;;;-16.01;77.62;101223.78;5107257;28;20282;-68
2022/02/03 12:22:40;;;;;;;;;;;;;;;-16.13;76.08;101211.47;5109325;28;20362;-67
2022/02/03 12:25:12;;;;;;;;;;;;;;;-16.33;76.26;101219.38;5104051;28;19928;-67
2022/02/03 12:28:01;;;;;;;;;;;;;;;-16.40;76.72;101218.13;5109032;28;19954;-67
2022/02/03 12:30:29;;;;;;;;;;;;;;;-16.48;77.92;101220.16;5108987;28;20298;-66
2022/02/03 12:38:29;;;;;;;;;;;;;;;-15.79;76.01;101202.63;5108727;28;19931;-64
2022/02/03 12:41:05;;;;;;;;;;;;;;;-15.99;76.30;101202.28;5108125;28;20464;-68
2022/02/03 12:43:35;;;;;;;;;;;;;;;-15.70;75.32;101208.97;5107509;28;19927;-66
2022/02/03 12:46:02;;;;;;;;;;;;;;;-15.81;75.73;101214.97;5108011;28;19928;-68
2022/02/03 12:48:30;;;;;;;;;;;;;;;-16.06;76.92;101210.19;5108953;28;20277;-64
2022/02/03 12:50:57;;;;;;;;;;;;;;;-16.04;76.89;101204.50;5106901;28;19927;-67
2022/02/03 12:53:30;;;;;;;;;;;;;;;-16.33;77.89;101206.91;5107026;28;19935;-68
2022/02/03 12:55:57;;;;;;;;;;;;;;;-16.61;77.75;101209.34;5108262;28;19957;-67
2022/02/03 12:58:25;;;;;;;;;;;;;;;-17.10;79.58;101208.84;5104028;28;19932;-69
2022/02/03 13:00:56;;;;;;;;;;;;;;;-17.38;80.41;101204.59;5093317;28;19936;-62
2022/02/03 13:03:32;;;;;;;;;;;;;;;-17.15;79.50;101220.97;5094433;28;19924;-62
2022/02/03 13:06:03;;;;;;;;;;;;;;;-17.38;79.40;101212.03;5093596;28;19928;-68
2022/02/03 13:08:36;;;;;;;;;;;;;;;-17.90;81.54;101216.09;5093486;28;19931;-67
2022/02/03 13:11:05;;;;;;;;;;;;;;;-17.91;81.91;101206.94;5089151;28;19928;-62
2022/02/03 13:13:38;;;;;;;;;;;;;;;-17.90;82.02;101214.50;5080510;28;19932;-68
2022/02/03 13:16:08;;;;;;;;;;;;;;;-18.19;82.46;101219.13;5095152;28;19924;-68
2022/02/03 13:18:40;;;;;;;;;;;;;;;-18.20;83.51;101214.94;5093115;28;20023;-68
2022/02/03 13:21:21;;;;;;;;;;;;;;;-18.24;83.85;101207.25;5090965;28;20011;-68
2022/02/03 13:23:52;;;;;;;;;;;;;;;-18.30;84.22;101211.81;5090954;28;20389;-67
2022/02/03 13:26:25;;;;;;;;;;;;;;;-18.41;84.41;101215.22;5093940;28;19923;-68
2022/02/03 13:28:59;;;;;;;;;;;;;;;-18.53;83.98;101216.84;5093258;28;19931;-65
2022/02/03 13:31:42;;;;;;;;;;;;;;;-18.74;84.65;101208.78;5093434;28;20370;-67
2022/02/03 13:34:23;;;;;;;;;;;;;;;-18.82;85.09;101205.81;5094967;28;19977;-65
2022/02/03 13:36:58;;;;;;;;;;;;;;;-18.61;85.11;101221.28;5090296;28;20023;-63
2022/02/03 13:39:28;;;;;;;;;;;;;;;-18.55;84.03;101218.34;5093404;28;19930;-67
2022/02/03 13:42:05;;;;;;;;;;;;;;;-18.59;83.91;101213.97;5093845;28;19928;-65
2022/02/03 13:44:32;;;;;;;;;;;;;;;-18.75;84.16;101217.88;5093141;28;20282;-64
2022/02/03 13:46:59;;;;;;;;;;;;;;;-18.87;84.59;101223.63;5092255;28;19924;-62
2022/02/03 13:49:28;;;;;;;;;;;;;;;-18.87;84.92;101221.13;5090848;28;19932;-67
2022/02/03 13:51:59;;;;;;;;;;;;;;;-18.88;85.55;101230.16;5094589;28;19928;-66
2022/02/03 13:54:53;;;;;;;;;;;;;;;-19.08;85.40;101217.97;5092697;28;19924;-66
2022/02/03 14:14:38;;;;;;;;;;;;;;;-19.35;84.07;101242.53;5092340;28;20281;-67
2022/02/03 14:23:23;;;;;;;;;;;;;;;-19.38;86.18;101235.75;5085106;28;19931;-68
2022/02/03 14:28:34;;;;;;;;;;;;;;;-19.48;86.27;101250.69;5088098;28;20336;-68
2022/02/03 14:31:06;;;;;;;;;;;;;;;-19.30;85.00;101251.16;5091348;28;19924;-65
2022/02/03 14:33:35;;;;;;;;;;;;;;;-19.47;84.77;101251.56;5091872;28;20403;-61
2022/02/03 14:36:06;;;;;;;;;;;;;;;-19.53;85.46;101247.03;5091814;28;19931;-67
2022/02/03 14:38:40;;;;;;;;;;;;;;;-19.55;84.87;101249.38;5092831;28;19928;-68
2022/02/03 14:41:12;;;;;;;;;;;;;;;-19.60;84.84;101259.72;5092089;28;19928;-67
2022/02/03 14:43:41;;;;;;;;;;;;;;;-19.58;84.55;101259.06;5091972;28;19924;-68
2022/02/03 14:46:12;;;;;;;;;;;;;;;-19.60;84.78;101255.59;5092966;28;19998;-67
2022/02/03 14:48:41;;;;;;;;;;;;;;;-19.72;84.49;101259.72;5091608;28;19928;-68
2022/02/03 14:51:08;;;;;;;;;;;;;;;-19.74;83.93;101257.88;5091771;28;20436;-68
2022/02/03 14:53:49;;;;;;;;;;;;;;;-19.92;83.96;101254.91;5091823;28;19963;-67
2022/02/03 14:59:12;;;;;;;;;;;;;;;-20.10;85.67;101259.34;5068519;28;19925;-63
2022/02/03 15:01:39;;;;;;;;;;;;;;;-20.34;85.57;101254.25;5086718;28;19928;-68
2022/02/03 15:04:10;;;;;;;;;;;;;;;-20.41;86.19;101256.16;5091939;28;19963;-67
2022/02/03 15:06:39;;;;;;;;;;;;;;;-20.16;86.44;101262.22;5091156;28;19931;-66
2022/02/03 15:09:19;;;;;;;;;;;;;;;-20.15;85.68;101258.97;5091803;28;19932;-68
2022/02/03 15:12:01;;;;;;;;;;;;;;;-20.26;86.15;101247.41;5091144;28;19924;-68
2022/02/03 15:14:30;;;;;;;;;;;;;;;-20.16;86.28;101263.81;5091933;28;19924;-61
2022/02/03 15:16:58;;;;;;;;;;;;;;;-20.14;86.65;101273.06;5091105;28;19924;-68
2022/02/03 15:19:24;;;;;;;;;;;;;;;-19.78;84.22;101267.56;5092118;28;19964;-68
2022/02/03 15:21:51;;;;;;;;;;;;;;;-20.08;84.30;101265.28;5091667;28;19928;-67
2022/02/03 15:24:17;;;;;;;;;;;;;;;-20.14;84.46;101260.69;5078198;22;19932;-67
2022/02/03 15:26:44;;;;;;;;;;;;;;;-20.22;85.66;101255.16;5031112;28;19936;-69
2022/02/03 15:29:12;;;;;;;;;;;;;;;-20.17;86.07;101253.03;5031387;28;19936;-70
2022/02/03 15:31:42;;;;;;;;;;;;;;;-20.16;86.13;101253.91;5031459;28;20031;-68
2022/02/03 15:34:11;;;;;;;;;;;;;;;-20.11;84.76;101258.47;5038838;28;20371;-68
2022/02/03 15:36:39;;;;;;;;;;;;;;;-20.14;85.06;101260.69;5051069;28;19956;-68
2022/02/03 15:39:09;;;;;;;;;;;;;;;-20.22;85.47;101252.69;5051428;28;19928;-68
2022/02/03 15:41:36;;;;;;;;;;;;;;;-20.24;84.93;101246.78;5052301;28;19924;-67
2022/02/03 15:44:03;;;;;;;;;;;;;;;-20.22;86.00;101246.88;5050575;28;19928;-67
2022/02/03 15:46:33;;;;;;;;;;;;;;;-20.22;85.07;101234.50;5043412;28;19931;-70
2022/02/03 15:49:10;;;;;;;;;;;;;;;-19.96;83.17;101226.53;5051929;28;19972;-67
2022/02/03 15:57:26;;;;;;;;;;;;;;;-20.29;81.49;101237.25;5052201;28;19963;-64
2022/02/03 16:03:07;;;;;;;;;;;;;;;-20.54;82.56;101247.81;4971559;28;20439;-65
2022/02/03 16:16:53;;;;;;;;;;;;;;;-20.34;85.97;101255.84;5051321;28;20359;-67
2022/02/03 16:19:24;;;;;;;;;;;;;;;-20.19;85.74;101253.66;5052398;28;19956;-66
2022/02/03 16:21:57;;;;;;;;;;;;;;;-20.24;86.04;101255.78;5052243;28;19925;-66
2022/02/03 16:24:44;;;;;;;;;;;;;;;-20.32;86.68;101244.44;5070765;23;19924;-67
2022/02/03 16:52:09;;;;;;;;;;;;;;;-19.99;86.61;101256.91;5075605;28;19977;-66
2022/02/03 16:54:37;;;;;;;;;;;;;;;-20.11;86.18;101250.16;5075364;28;19964;-64
2022/02/03 16:57:11;;;;;;;;;;;;;;;-20.07;86.80;101262.03;5075418;28;20310;-66
2022/02/03 16:59:48;;;;;;;;;;;;;;;-20.15;86.05;101266.41;5058439;28;19925;-61
2022/02/03 17:02:15;;;;;;;;;;;;;;;-20.33;86.38;101265.00;5055044;28;20429;-63
2022/02/03 17:04:42;;;;;;;;;;;;;;;-20.47;86.45;101262.34;5055214;28;19960;-63
2022/02/03 17:07:09;;;;;;;;;;;;;;;-20.53;87.08;101261.00;5055365;28;19924;-61
2022/02/03 17:09:38;;;;;;;;;;;;;;;-20.61;86.60;101262.91;5055213;28;19932;-66
2022/02/03 17:12:05;;;;;;;;;;;;;;;-20.64;87.65;101265.16;5054841;28;20023;-67
2022/02/03 17:14:32;;;;;;;;;;;;;;;-20.66;87.23;101264.16;5054589;28;19925;-63
2022/02/03 17:16:59;;;;;;;;;;;;;;;-20.73;86.79;101262.81;5054615;28;19929;-65
2022/02/03 17:19:25;;;;;;;;;;;;;;;-20.76;86.77;101260.13;5054774;28;19925;-66
2022/02/03 17:21:52;;;;;;;;;;;;;;;-20.66;86.35;101269.97;5054815;28;20284;-66
2022/02/03 17:24:18;;;;;;;;;;;;;;;-20.48;84.54;101268.03;5067994;22;19929;-67
2022/02/03 17:26:55;;;;;;;;;;;;;;;-20.77;84.83;101267.44;5054634;28;19931;-68
2022/02/03 17:29:30;;;;;;;;;;;;;;;-20.89;85.87;101273.13;5054749;28;20007;-67
2022/02/03 17:32:04;;;;;;;;;;;;;;;-20.53;84.75;101280.78;5054925;28;19951;-67
2022/02/03 18:11:04;;;;;;;;;;;;;;;-20.88;84.63;101281.41;5031884;28;19929;-68
2022/02/03 18:35:49;;;;;;;;;;;;;;;-20.88;84.94;101282.28;5049716;28;19978;-67
2022/02/03 18:52:16;;;;;;;;;;;;;;;-20.94;84.67;101257.06;5053230;28;20030;-66
2022/02/03 18:55:09;;;;;;;;;;;;;;;-20.98;84.61;101255.13;5053477;28;19925;-69
2022/02/03 18:57:45;;;;;;;;;;;;;;;-20.83;84.51;101261.97;5052792;28;19929;-66
2022/02/03 19:00:35;;;;;;;;;;;;;;;-20.78;83.85;101258.25;5053202;28;20371;-68
2022/02/03 19:03:18;;;;;;;;;;;;;;;-20.89;84.11;101253.34;5053377;28;19978;-68
2022/02/03 20:06:41;;;;;;;;;;;;;;;-21.27;85.45;101262.66;5052382;28;19929;-66
2022/02/03 20:09:16;;;;;;;;;;;;;;;-21.27;86.84;101257.72;5054098;28;19931;-66
2022/02/03 20:11:45;;;;;;;;;;;;;;;-21.12;86.78;101267.97;5056499;28;19986;-63
2022/02/03 20:14:13;;;;;;;;;;;;;;;-20.84;85.37;101273.50;5056416;28;19975;-66
2022/02/03 20:16:39;;;;;;;;;;;;;;;-20.76;85.46;101270.00;5056285;28;20303;-64
2022/02/03 20:19:06;;;;;;;;;;;;;;;-20.92;86.29;101264.63;5056163;28;19929;-61
2022/02/03 20:21:34;;;;;;;;;;;;;;;-20.98;86.43;101269.09;5056136;28;19924;-64
2022/02/03 20:24:03;;;;;;;;;;;;;;;-20.90;84.86;101264.00;5056231;28;20383;-63
2022/02/03 20:26:30;;;;;;;;;;;;;;;-20.88;84.86;101257.56;5055949;28;19924;-65
2022/02/03 20:28:58;;;;;;;;;;;;;;;-20.95;85.04;101257.81;5055901;28;19925;-66
2022/02/03 20:31:25;;;;;;;;;;;;;;;-21.02;85.86;101257.22;5056127;28;19929;-64
2022/02/03 20:33:51;;;;;;;;;;;;;;;-20.93;85.79;101258.81;5055904;28;20340;-64
2022/02/03 20:36:18;;;;;;;;;;;;;;;-20.92;86.19;101259.66;5055829;28;20367;-64
2022/02/03 20:38:45;;;;;;;;;;;;;;;-20.88;85.57;101254.19;5056072;28;19935;-65
2022/02/03 20:41:11;;;;;;;;;;;;;;;-20.86;85.44;101267.56;5055874;28;19929;-65
2022/02/03 20:43:38;;;;;;;;;;;;;;;-20.90;85.08;101282.91;5055747;28;19925;-64
2022/02/03 20:46:06;;;;;;;;;;;;;;;-20.99;85.77;101282.19;5055713;28;19924;-64
2022/02/03 20:48:33;;;;;;;;;;;;;;;-21.09;85.39;101275.63;5055365;28;19925;-63
2022/02/03 20:50:59;;;;;;;;;;;;;;;-21.04;85.98;101273.53;5055562;28;19933;-63
2022/02/03 20:53:26;;;;;;;;;;;;;;;-21.29;85.55;101265.75;5055382;28;20390;-64
2022/02/03 20:55:53;;;;;;;;;;;;;;;-21.23;86.51;101272.06;5055591;28;19932;-65
2022/02/03 20:58:20;;;;;;;;;;;;;;;-21.15;86.09;101272.69;5055534;28;19924;-62
2022/02/03 21:00:52;;;;;;;;;;;;;;;-21.10;85.34;101274.78;5055417;28;20323;-64
2022/02/03 21:03:25;;;;;;;;;;;;;;;-20.92;84.84;101275.38;5055426;28;20267;-65
2022/02/03 21:05:51;;;;;;;;;;;;;;;-20.87;83.95;101276.59;5055519;28;19976;-66
2022/02/03 21:08:22;;;;;;;;;;;;;;;-20.95;85.03;101274.28;5055311;28;19932;-66
2022/02/03 21:10:49;;;;;;;;;;;;;;;-20.99;84.91;101262.41;5055319;28;19924;-66
2022/02/03 21:13:16;;;;;;;;;;;;;;;-21.17;84.75;101269.22;5055376;28;19936;-64
2022/02/03 21:15:42;;;;;;;;;;;;;;;-21.08;85.26;101266.63;5055076;28;20000;-63
2022/02/03 21:18:11;;;;;;;;;;;;;;;-21.20;86.90;101261.56;5055030;28;20375;-68
2022/02/03 21:20:40;;;;;;;;;;;;;;;-21.13;85.47;101272.06;5054692;28;20327;-68